createdAt,value
2022-11-29T00:01:04.995Z,70.20
2022-11-29T00:03:32.028Z,70.76
2022-11-29T00:06:05.702Z,70.51
2022-11-29T00:08:32.367Z,71.20
2022-11-29T00:11:04.259Z,70.99
2022-11-29T00:13:30.925Z,70.65
2022-11-29T00:16:02.708Z,70.76
2022-11-29T00:18:29.475Z,70.94
2022-11-29T00:20:56.161Z,70.98
2022-11-29T00:23:22.868Z,70.88
2022-11-29T00:25:49.475Z,71.50
2022-11-29T00:28:16.329Z,70.81
2022-11-29T00:30:46.143Z,70.98
2022-11-29T00:33:12.943Z,71.33
2022-11-29T00:35:42.650Z,71.39
2022-11-29T00:38:09.304Z,71.60
2022-11-29T00:40:36.031Z,71.37
2022-11-29T00:43:02.673Z,71.13
2022-11-29T00:45:29.333Z,71.46
2022-11-29T00:47:55.952Z,71.33
2022-11-29T00:50:22.549Z,71.90
2022-11-29T00:52:49.684Z,71.08
2022-11-29T00:55:16.383Z,71.55
2022-11-29T00:57:43.110Z,71.35
2022-11-29T01:00:10.100Z,71.52
2022-11-29T01:02:36.819Z,71.46
2022-11-29T01:05:03.592Z,71.33
2022-11-29T01:07:30.354Z,71.57
2022-11-29T01:09:57.015Z,71.15
2022-11-29T01:12:23.629Z,71.01
2022-11-29T01:14:50.302Z,71.08
2022-11-29T01:17:16.941Z,71.58
2022-11-29T01:19:49.350Z,71.49
2022-11-29T01:22:20.539Z,71.77
2022-11-29T01:24:47.287Z,71.69
2022-11-29T01:27:13.909Z,71.43
2022-11-29T01:29:40.681Z,70.91
2022-11-29T01:32:12.484Z,70.94
2022-11-29T01:34:39.729Z,70.84
2022-11-29T01:37:06.481Z,70.64
2022-11-29T01:39:33.274Z,70.75
2022-11-29T01:42:03.142Z,70.84
2022-11-29T01:44:29.702Z,71.41
2022-11-29T01:46:56.760Z,71.04
2022-11-29T01:49:24.879Z,71.27
2022-11-29T01:52:03.935Z,70.81
2022-11-29T01:54:31.903Z,70.89
2022-11-29T01:56:59.072Z,71.08
2022-11-29T01:59:27.590Z,71.47
2022-11-29T02:01:56.918Z,70.39
2022-11-29T02:04:23.555Z,70.67
2022-11-29T02:06:50.217Z,71.17
2022-11-29T02:09:22.417Z,71.52
2022-11-29T02:12:16.013Z,71.37
2022-11-29T02:15:06.939Z,71.74
2022-11-29T02:18:07.411Z,71.12
2022-11-29T02:20:53.653Z,71.24
2022-11-29T02:23:57.967Z,71.51
2022-11-29T02:26:54.930Z,71.61
2022-11-29T02:29:38.852Z,71.52
2022-11-29T02:32:24.264Z,71.64
2022-11-29T02:34:53.878Z,71.00
2022-11-29T02:37:52.928Z,71.34
2022-11-29T02:40:35.095Z,71.19
2022-11-29T02:43:19.968Z,71.59
2022-11-29T02:46:08.303Z,72.23
2022-11-29T02:48:46.155Z,72.21
2022-11-29T02:51:39.524Z,72.13
2022-11-29T02:54:27.236Z,71.64
2022-11-29T02:57:01.108Z,71.92
2022-11-29T02:59:50.584Z,72.43
2022-11-29T03:02:23.772Z,72.29
2022-11-29T03:04:58.607Z,72.07
2022-11-29T03:07:50.304Z,72.10
2022-11-29T03:10:23.138Z,72.13
2022-11-29T03:12:51.945Z,72.50
2022-11-29T03:15:34.963Z,72.62
2022-11-29T03:18:15.767Z,72.80
2022-11-29T03:21:16.462Z,73.04
2022-11-29T03:23:57.669Z,72.30
2022-11-29T03:26:30.477Z,72.78
2022-11-29T03:29:07.431Z,73.22
2022-11-29T03:31:53.249Z,72.16
2022-11-29T03:34:23.161Z,73.07
2022-11-29T03:36:56.203Z,73.95
2022-11-29T03:39:50.104Z,74.21
2022-11-29T03:42:25.395Z,73.76
2022-11-29T03:45:01.090Z,73.67
2022-11-29T03:47:36.489Z,73.17
2022-11-29T03:50:11.896Z,72.94
2022-11-29T03:52:44.577Z,72.69
2022-11-29T03:55:25.813Z,72.53
2022-11-29T03:58:08.080Z,72.83
2022-11-29T04:00:48.013Z,72.70
2022-11-29T04:03:34.497Z,72.83
2022-11-29T04:06:20.809Z,73.36
2022-11-29T04:09:11.649Z,73.58
2022-11-29T04:11:59.093Z,73.60
2022-11-29T04:14:40.186Z,73.11
2022-11-29T04:17:21.469Z,73.14
2022-11-29T04:20:02.626Z,73.03
2022-11-29T04:22:32.308Z,72.78
2022-11-29T04:25:13.456Z,73.56
2022-11-29T04:27:49.455Z,73.25
2022-11-29T04:30:20.005Z,73.16
2022-11-29T04:33:13.859Z,73.85
2022-11-29T04:35:49.584Z,73.36
2022-11-29T04:38:31.910Z,73.99
2022-11-29T04:41:22.613Z,73.58
2022-11-29T04:44:25.137Z,73.99
2022-11-29T04:47:00.861Z,74.03
2022-11-29T04:49:51.961Z,74.33
2022-11-29T04:52:41.633Z,74.22
2022-11-29T04:55:36.492Z,74.19
2022-11-29T04:58:15.363Z,73.89
2022-11-29T05:00:54.738Z,73.96
2022-11-29T05:03:39.221Z,73.83
2022-11-29T05:06:20.891Z,73.87
2022-11-29T05:08:47.491Z,73.77
2022-11-29T05:11:46.605Z,73.75
2022-11-29T05:14:42.205Z,73.35
2022-11-29T05:17:42.956Z,73.86
2022-11-29T05:20:24.448Z,73.95
2022-11-29T05:23:07.588Z,74.04
2022-11-29T05:25:43.311Z,73.61
2022-11-29T05:28:17.851Z,73.47
2022-11-29T05:31:10.936Z,73.64
2022-11-29T05:33:46.571Z,73.65
2022-11-29T05:36:21.242Z,73.22
2022-11-29T05:39:26.467Z,73.25
2022-11-29T05:42:12.377Z,73.54
2022-11-29T05:44:44.803Z,73.27
2022-11-29T05:47:15.386Z,73.13
2022-11-29T05:50:16.378Z,73.36
2022-11-29T05:53:21.312Z,73.62
2022-11-29T05:56:23.913Z,73.15
2022-11-29T05:59:00.138Z,73.73
2022-11-29T06:01:37.282Z,74.14
2022-11-29T06:04:29.166Z,74.29
2022-11-29T06:07:01.929Z,74.36
2022-11-29T06:09:33.366Z,74.19
2022-11-29T06:12:05.454Z,73.69
2022-11-29T06:14:55.453Z,73.47
2022-11-29T06:17:26.021Z,73.36
2022-11-29T06:20:20.547Z,73.76
2022-11-29T06:22:58.405Z,73.60
2022-11-29T06:25:50.146Z,73.28
2022-11-29T06:28:44.891Z,73.81
2022-11-29T06:31:16.777Z,73.81
2022-11-29T06:33:53.976Z,73.57
2022-11-29T06:36:41.231Z,73.29
2022-11-29T06:39:09.758Z,73.42
2022-11-29T06:41:37.176Z,73.24
2022-11-29T06:44:07.120Z,73.47
2022-11-29T06:46:45.940Z,73.65
2022-11-29T06:49:33.185Z,73.32
2022-11-29T06:52:07.823Z,73.67
2022-11-29T06:54:49.392Z,73.77
2022-11-29T06:57:23.488Z,74.02
2022-11-29T07:00:02.683Z,73.66
2022-11-29T07:02:41.366Z,73.76
2022-11-29T07:05:16.029Z,72.92
2022-11-29T07:07:42.927Z,73.94
2022-11-29T07:10:17.974Z,74.11
2022-11-29T07:12:45.996Z,73.84
2022-11-29T07:15:15.113Z,73.71
2022-11-29T07:17:59.615Z,73.70
2022-11-29T07:20:51.039Z,73.42
2022-11-29T07:23:35.385Z,74.04
2022-11-29T07:26:42.042Z,73.89
2022-11-29T07:29:38.227Z,73.11
2022-11-29T07:32:14.471Z,73.53
2022-11-29T07:35:04.932Z,74.04
2022-11-29T07:37:51.454Z,73.82
2022-11-29T07:41:01.191Z,73.92
2022-11-29T07:43:46.448Z,73.62
2022-11-29T07:46:13.326Z,74.21
2022-11-29T07:48:40.162Z,73.76
2022-11-29T07:51:06.942Z,73.64
2022-11-29T07:53:41.707Z,73.50
2022-11-29T07:56:09.672Z,72.74
2022-11-29T07:58:36.586Z,73.14
2022-11-29T08:01:03.467Z,73.34
2022-11-29T08:03:30.456Z,73.47
2022-11-29T08:05:57.102Z,73.53
2022-11-29T08:08:23.852Z,73.67
2022-11-29T08:10:50.603Z,73.22
2022-11-29T08:13:20.895Z,72.96
2022-11-29T08:15:48.154Z,73.57
2022-11-29T08:18:15.424Z,73.00
2022-11-29T08:20:42.652Z,73.23
2022-11-29T08:23:15.552Z,73.16
2022-11-29T08:25:42.283Z,73.03
2022-11-29T08:28:09.264Z,72.44
2022-11-29T08:30:36.075Z,72.85
2022-11-29T08:33:02.816Z,73.06
2022-11-29T08:35:29.885Z,72.73
2022-11-29T08:37:56.663Z,73.04
2022-11-29T08:40:24.314Z,73.66
2022-11-29T08:42:51.211Z,73.36
2022-11-29T08:45:17.959Z,73.64
2022-11-29T08:47:44.645Z,74.17
2022-11-29T08:50:16.783Z,73.72
2022-11-29T08:53:06.694Z,73.48
2022-11-29T08:55:40.606Z,73.74
2022-11-29T08:58:10.469Z,73.32
2022-11-29T09:00:37.659Z,73.20
2022-11-29T09:03:26.069Z,72.56
2022-11-29T09:05:53.203Z,73.10
2022-11-29T09:08:20.272Z,72.74
2022-11-29T09:10:47.676Z,73.07
2022-11-29T09:13:14.439Z,72.77
2022-11-29T09:15:42.665Z,72.65
2022-11-29T09:18:09.419Z,72.46
2022-11-29T09:20:36.235Z,72.98
2022-11-29T09:23:02.989Z,72.98
2022-11-29T09:25:29.643Z,72.89
2022-11-29T09:27:59.095Z,73.90
2022-11-29T09:30:31.595Z,73.50
2022-11-29T09:33:00.806Z,73.85
2022-11-29T09:35:27.818Z,74.19
2022-11-29T09:37:54.993Z,73.83
2022-11-29T09:40:27.787Z,73.54
2022-11-29T09:43:18.530Z,74.86
2022-11-29T09:45:47.804Z,73.76
2022-11-29T09:48:26.704Z,73.71
2022-11-29T09:51:20.120Z,73.60
2022-11-29T09:53:59.383Z,73.08
2022-11-29T09:56:36.558Z,73.26
2022-11-29T09:59:08.191Z,73.04
2022-11-29T10:01:38.316Z,73.67
2022-11-29T10:04:09.837Z,73.40
2022-11-29T10:07:03.947Z,72.33
2022-11-29T10:09:36.035Z,72.71
2022-11-29T10:12:42.664Z,72.91
2022-11-29T10:15:22.436Z,73.03
2022-11-29T10:18:07.260Z,73.24
2022-11-29T10:20:42.425Z,72.94
2022-11-29T10:23:27.843Z,72.47
2022-11-29T10:25:56.246Z,73.26
2022-11-29T10:28:26.038Z,72.98
2022-11-29T10:30:58.635Z,73.35
2022-11-29T10:33:34.916Z,72.43
2022-11-29T10:36:16.793Z,73.12
2022-11-29T10:38:44.416Z,72.62
2022-11-29T10:41:15.744Z,73.00
2022-11-29T10:43:43.267Z,72.90
2022-11-29T10:46:21.385Z,71.81
2022-11-29T10:48:48.257Z,72.09
2022-11-29T10:51:16.633Z,72.59
2022-11-29T10:53:44.833Z,72.77
2022-11-29T10:56:29.697Z,72.52
2022-11-29T10:58:57.694Z,72.04
2022-11-29T11:01:26.187Z,72.42
2022-11-29T11:03:58.456Z,72.00
2022-11-29T11:06:27.406Z,72.22
2022-11-29T11:09:12.920Z,72.04
2022-11-29T11:11:40.150Z,71.92
2022-11-29T11:14:31.195Z,72.01
2022-11-29T11:17:15.013Z,72.03
2022-11-29T11:19:42.015Z,72.76
2022-11-29T11:22:20.391Z,72.06
2022-11-29T11:24:47.602Z,71.79
2022-11-29T11:27:39.829Z,72.13
2022-11-29T11:30:08.572Z,72.43
2022-11-29T11:32:35.390Z,72.16
2022-11-29T11:35:02.183Z,72.10
2022-11-29T11:37:32.657Z,72.52
2022-11-29T11:40:01.675Z,72.88
2022-11-29T11:42:39.145Z,73.52
2022-11-29T11:45:11.773Z,72.76
2022-11-29T11:47:44.488Z,72.22
2022-11-29T11:50:16.871Z,71.04
2022-11-29T11:52:52.466Z,71.04
2022-11-29T11:55:19.210Z,71.62
2022-11-29T11:57:45.842Z,72.01
2022-11-29T12:01:02.356Z,71.92
2022-11-29T12:04:02.182Z,72.59
2022-11-29T12:06:39.537Z,71.59
2022-11-29T12:09:09.997Z,71.56
2022-11-29T12:12:10.118Z,71.55
2022-11-29T12:14:58.265Z,71.62
2022-11-29T12:17:55.957Z,71.11
2022-11-29T12:20:26.377Z,71.01
2022-11-29T12:23:19.523Z,71.03
2022-11-29T12:25:58.249Z,71.57
2022-11-29T12:28:33.173Z,71.37
2022-11-29T12:31:06.512Z,71.26
2022-11-29T12:33:40.824Z,70.66
2022-11-29T12:36:33.332Z,70.87
2022-11-29T12:39:11.166Z,70.28
2022-11-29T12:42:03.195Z,71.26
2022-11-29T12:44:39.547Z,70.46
2022-11-29T12:50:15.038Z,70.71
2022-11-29T12:52:51.700Z,71.22
2022-11-29T12:55:29.709Z,70.90
2022-11-29T12:58:14.682Z,71.01
2022-11-29T13:00:49.692Z,70.58
2022-11-29T13:03:21.512Z,70.46
2022-11-29T13:05:50.557Z,70.49
2022-11-29T13:08:55.197Z,70.75
2022-11-29T13:11:34.984Z,71.29
2022-11-29T13:17:05.380Z,70.65
2022-11-29T13:19:55.301Z,70.79
2022-11-29T13:22:30.792Z,70.47
2022-11-29T13:25:04.688Z,70.31
2022-11-29T13:27:42.035Z,70.62
2022-11-29T13:30:14.172Z,70.67
2022-11-29T13:32:50.597Z,69.74
2022-11-29T13:35:29.952Z,70.63
2022-11-29T13:38:10.525Z,70.30
2022-11-29T13:40:43.526Z,70.36
2022-11-29T13:43:22.844Z,70.61
2022-11-29T13:46:01.681Z,71.66
2022-11-29T13:48:28.417Z,71.53
2022-11-29T13:50:58.361Z,71.58
2022-11-29T13:53:30.772Z,70.96
2022-11-29T13:56:02.007Z,71.24
2022-11-29T13:58:28.596Z,71.59
2022-11-29T14:01:00.759Z,71.64
2022-11-29T14:03:39.028Z,72.06
2022-11-29T14:06:10.057Z,72.57
2022-11-29T14:11:42.931Z,73.44
2022-11-29T14:14:15.785Z,73.68
2022-11-29T14:16:42.354Z,73.74
2022-11-29T14:19:08.869Z,74.17
2022-11-29T14:22:05.613Z,74.34
2022-11-29T14:24:32.177Z,74.16
2022-11-29T14:27:08.072Z,74.46
2022-11-29T14:29:50.084Z,74.63
2022-11-29T14:32:35.508Z,75.25
2022-11-29T14:35:11.268Z,75.18
2022-11-29T14:37:56.548Z,75.31
2022-11-29T14:40:35.338Z,75.57
2022-11-29T14:43:02.881Z,75.58
2022-11-29T14:45:32.630Z,75.54
2022-11-29T14:47:59.753Z,75.54
2022-11-29T14:50:38.647Z,75.54
2022-11-29T14:53:07.283Z,75.88
2022-11-29T14:55:38.282Z,75.50
2022-11-29T14:58:15.882Z,75.18
2022-11-29T15:00:48.509Z,76.03
2022-11-29T15:03:29.562Z,75.91
2022-11-29T15:06:14.167Z,75.99
2022-11-29T15:08:57.972Z,76.26
2022-11-29T15:11:41.423Z,76.15
2022-11-29T15:14:27.068Z,76.06
2022-11-29T15:17:05.912Z,76.17
2022-11-29T15:19:57.077Z,76.21
2022-11-29T15:22:34.349Z,76.26
2022-11-29T15:25:14.766Z,76.56
2022-11-29T15:27:55.211Z,76.89
2022-11-29T15:30:35.548Z,77.06
2022-11-29T15:33:06.011Z,76.83
2022-11-29T15:35:34.269Z,77.65
2022-11-29T15:38:01.080Z,77.23
2022-11-29T15:40:36.513Z,77.08
2022-11-29T15:43:24.059Z,76.78
2022-11-29T15:45:55.647Z,77.32
2022-11-29T15:48:28.738Z,77.32
2022-11-29T15:51:13.860Z,77.40
2022-11-29T15:53:45.122Z,76.99
2022-11-29T15:56:15.965Z,76.86
2022-11-29T15:58:43.302Z,77.29
2022-11-29T16:01:14.784Z,76.94
2022-11-29T16:03:43.694Z,77.10
2022-11-29T16:06:23.834Z,76.88
2022-11-29T16:08:51.356Z,77.17
2022-11-29T16:11:21.616Z,76.66
2022-11-29T16:14:26.513Z,76.81
2022-11-29T16:16:54.983Z,77.25
2022-11-29T16:19:35.408Z,77.27
2022-11-29T16:22:18.137Z,77.49
2022-11-29T16:24:53.661Z,77.87
2022-11-29T16:27:21.166Z,77.65
2022-11-29T16:29:48.059Z,77.54
2022-11-29T16:32:26.135Z,77.76
2022-11-29T16:34:53.431Z,77.56
2022-11-29T16:37:29.235Z,77.89
2022-11-29T16:39:59.962Z,77.36
2022-11-29T16:42:31.577Z,77.57
2022-11-29T16:45:25.098Z,77.84
2022-11-29T16:47:58.519Z,78.36
2022-11-29T16:50:26.974Z,77.88
2022-11-29T16:53:49.181Z,78.16
2022-11-29T16:56:17.483Z,78.90
2022-11-29T16:59:25.078Z,78.74
2022-11-29T17:01:34.470Z,78.29
2022-11-29T17:04:01.279Z,78.09
2022-11-29T17:06:29.081Z,78.07
2022-11-29T17:08:57.304Z,78.05
2022-11-29T17:11:24.077Z,78.29
2022-11-29T17:13:51.309Z,78.13
2022-11-29T17:16:20.107Z,78.03
2022-11-29T17:18:47.832Z,77.93
2022-11-29T17:21:18.753Z,78.25
2022-11-29T17:23:45.802Z,78.32
2022-11-29T17:26:13.658Z,78.21
2022-11-29T17:28:40.608Z,78.08
2022-11-29T17:31:09.341Z,78.20
2022-11-29T17:33:36.143Z,77.73
2022-11-29T17:36:11.374Z,78.79
2022-11-29T17:38:38.146Z,78.23
2022-11-29T17:41:18.981Z,78.64
2022-11-29T17:43:46.922Z,78.62
2022-11-29T17:46:16.347Z,78.45
2022-11-29T17:48:45.652Z,77.98
2022-11-29T17:51:43.556Z,78.69
2022-11-29T17:54:03.044Z,79.49
2022-11-29T17:56:30.555Z,78.91
2022-11-29T17:58:59.169Z,78.39
2022-11-29T18:01:28.263Z,78.56
2022-11-29T18:03:57.184Z,78.38
2022-11-29T18:06:26.796Z,78.77
2022-11-29T18:08:55.667Z,79.21
2022-11-29T18:11:31.441Z,78.98
2022-11-29T18:13:59.004Z,78.74
2022-11-29T18:16:36.268Z,78.76
2022-11-29T18:19:05.743Z,79.38
2022-11-29T18:21:33.472Z,79.07
2022-11-29T18:24:01.246Z,79.04
2022-11-29T18:26:29.625Z,79.19
2022-11-29T18:28:57.854Z,79.05
2022-11-29T18:31:36.202Z,79.10
2022-11-29T18:34:10.074Z,78.97
2022-11-29T18:36:48.368Z,78.75
2022-11-29T18:39:17.130Z,78.54
2022-11-29T18:41:45.691Z,78.59
2022-11-29T18:44:14.349Z,78.15
2022-11-29T18:46:43.231Z,78.15
2022-11-29T18:49:12.055Z,77.95
2022-11-29T18:51:39.265Z,78.07
2022-11-29T18:54:06.653Z,78.14
2022-11-29T18:56:34.746Z,78.75
2022-11-29T18:59:10.535Z,77.91
2022-11-29T19:01:42.710Z,77.41
2022-11-29T19:04:15.559Z,77.46
2022-11-29T19:06:42.957Z,77.56
2022-11-29T19:09:21.350Z,77.65
2022-11-29T19:11:51.694Z,77.39
2022-11-29T19:14:19.265Z,77.04
2022-11-29T19:16:47.563Z,77.39
2022-11-29T19:19:15.526Z,77.50
2022-11-29T19:21:42.258Z,77.51
2022-11-29T19:24:15.931Z,77.54
2022-11-29T19:26:44.666Z,77.12
2022-11-29T19:29:12.996Z,76.69
2022-11-29T19:31:39.986Z,77.16
2022-11-29T19:34:07.003Z,77.07
2022-11-29T19:36:33.944Z,77.32
2022-11-29T19:39:01.811Z,76.71
2022-11-29T19:41:32.276Z,76.12
2022-11-29T19:44:01.284Z,76.33
2022-11-29T19:46:36.450Z,76.92
2022-11-29T19:49:04.656Z,77.16
2022-11-29T19:51:31.909Z,76.82
2022-11-29T19:54:00.504Z,76.85
2022-11-29T19:56:28.606Z,76.89
2022-11-29T19:58:55.460Z,76.77
2022-11-29T20:01:25.398Z,76.70
2022-11-29T20:03:52.833Z,76.65
2022-11-29T20:06:19.738Z,77.37
2022-11-29T20:08:46.690Z,76.92
2022-11-29T20:11:19.009Z,76.35
2022-11-29T20:13:52.263Z,76.02
2022-11-29T20:16:19.474Z,76.35
2022-11-29T20:18:51.004Z,77.05
2022-11-29T20:21:27.290Z,77.45
2022-11-29T20:23:59.614Z,77.54
2022-11-29T20:26:27.507Z,77.23
2022-11-29T20:28:54.505Z,77.05
2022-11-29T20:31:23.206Z,76.95
2022-11-29T20:33:52.104Z,76.85
2022-11-29T20:36:56.102Z,76.80
2022-11-29T20:39:41.599Z,76.58
2022-11-29T20:42:31.690Z,76.51
2022-11-29T20:45:00.353Z,76.26
2022-11-29T20:47:41.229Z,76.15
2022-11-29T20:50:08.562Z,76.21
2022-11-29T20:52:43.347Z,76.03
2022-11-29T20:55:10.167Z,75.71
2022-11-29T20:57:39.687Z,76.18
2022-11-29T21:00:08.717Z,76.40
2022-11-29T21:02:35.459Z,76.03
2022-11-29T21:05:02.310Z,75.97
2022-11-29T21:07:29.414Z,75.62
2022-11-29T21:10:00.929Z,76.01
2022-11-29T21:12:29.262Z,75.73
2022-11-29T21:14:56.248Z,76.16
2022-11-29T21:17:23.075Z,76.12
2022-11-29T21:19:49.889Z,75.81
2022-11-29T21:22:45.226Z,75.61
2022-11-29T21:25:36.527Z,75.41
2022-11-29T21:28:08.903Z,75.84
2022-11-29T21:30:35.821Z,76.26
2022-11-29T21:33:02.685Z,75.89
2022-11-29T21:35:29.320Z,75.90
2022-11-29T21:37:58.837Z,76.05
2022-11-29T21:40:25.657Z,75.71
2022-11-29T21:42:52.360Z,75.34
2022-11-29T21:45:22.117Z,75.18
2022-11-29T21:47:48.869Z,75.20
2022-11-29T21:50:15.665Z,75.77
2022-11-29T21:52:43.767Z,75.68
2022-11-29T21:55:11.336Z,75.81
2022-11-29T21:57:39.055Z,76.18
2022-11-29T22:00:06.381Z,76.55
2022-11-29T22:02:33.043Z,76.46
2022-11-29T22:04:59.857Z,76.21
2022-11-29T22:07:27.109Z,76.16
2022-11-29T22:09:53.769Z,75.66
2022-11-29T22:12:33.578Z,75.77
2022-11-29T22:15:00.712Z,75.66
2022-11-29T22:17:27.399Z,75.60
2022-11-29T22:19:54.701Z,75.42
2022-11-29T22:22:21.405Z,74.97
2022-11-29T22:24:48.233Z,74.61
2022-11-29T22:27:17.804Z,74.86
2022-11-29T22:29:44.732Z,75.39
2022-11-29T22:32:11.559Z,74.55
2022-11-29T22:34:38.284Z,75.23
2022-11-29T22:37:06.098Z,75.61
2022-11-29T22:39:32.813Z,75.64
2022-11-29T22:41:59.551Z,75.42
2022-11-29T22:44:26.236Z,75.72
2022-11-29T22:46:53.044Z,75.56
2022-11-29T22:49:19.767Z,75.73
2022-11-29T22:51:46.841Z,75.30
2022-11-29T22:54:16.551Z,75.28
2022-11-29T22:56:44.714Z,74.89
2022-11-29T22:59:11.432Z,75.15
2022-11-29T23:01:39.649Z,75.20
2022-11-29T23:04:10.780Z,75.09
2022-11-29T23:06:42.363Z,74.69
2022-11-29T23:09:17.174Z,74.07
2022-11-29T23:11:45.267Z,74.88
2022-11-29T23:14:12.703Z,74.49
2022-11-29T23:16:39.437Z,75.44
2022-11-29T23:19:06.152Z,75.60
2022-11-29T23:21:35.668Z,74.66
2022-11-29T23:24:02.585Z,74.85
2022-11-29T23:26:36.582Z,74.33
2022-11-29T23:29:04.917Z,74.77
2022-11-29T23:31:31.911Z,75.02
2022-11-29T23:33:58.805Z,74.65
2022-11-29T23:36:25.789Z,74.75
2022-11-29T23:38:52.590Z,75.30
2022-11-29T23:41:19.286Z,75.00
2022-11-29T23:43:45.980Z,75.00
2022-11-29T23:46:16.888Z,74.62
2022-11-29T23:48:43.915Z,74.61
2022-11-29T23:51:13.440Z,74.91
2022-11-29T23:53:46.939Z,73.78
2022-11-29T23:56:16.085Z,74.33
2022-11-29T23:58:43.541Z,74.95
